sensor_id;sensor_type;location;lat;lon;timestamp;temperature;humidity
24260;DHT22;12384;48.112;18.418;2022-11-02T00:00:26;11.40;99.90
24260;DHT22;12384;48.112;18.418;2022-11-02T00:02:55;11.40;99.90
24260;DHT22;12384;48.112;18.418;2022-11-02T00:05:24;11.40;99.90
24260;DHT22;12384;48.112;18.418;2022-11-02T00:07:53;11.50;99.90
24260;DHT22;12384;48.112;18.418;2022-11-02T00:10:24;11.50;99.90
24260;DHT22;12384;48.112;18.418;2022-11-02T00:12:52;11.50;99.90
24260;DHT22;12384;48.112;18.418;2022-11-02T00:15:21;11.50;99.90
24260;DHT22;12384;48.112;18.418;2022-11-02T00:17:53;11.50;99.90
24260;DHT22;12384;48.112;18.418;2022-11-02T00:20:23;11.50;99.90
24260;DHT22;12384;48.112;18.418;2022-11-02T00:22:56;11.50;99.90
24260;DHT22;12384;48.112;18.418;2022-11-02T00:25:27;11.50;99.90
24260;DHT22;12384;48.112;18.418;2022-11-02T00:27:56;11.50;99.90
24260;DHT22;12384;48.112;18.418;2022-11-02T00:30:24;11.50;99.90
24260;DHT22;12384;48.112;18.418;2022-11-02T00:32:53;11.50;99.90
24260;DHT22;12384;48.112;18.418;2022-11-02T00:35:23;11.50;99.90
24260;DHT22;12384;48.112;18.418;2022-11-02T00:37:51;11.50;99.90
24260;DHT22;12384;48.112;18.418;2022-11-02T00:40:19;11.50;99.90
24260;DHT22;12384;48.112;18.418;2022-11-02T00:42:49;11.50;99.90
24260;DHT22;12384;48.112;18.418;2022-11-02T00:45:17;11.60;99.90
24260;DHT22;12384;48.112;18.418;2022-11-02T00:47:47;11.60;99.90
24260;DHT22;12384;48.112;18.418;2022-11-02T00:50:15;11.50;99.90
24260;DHT22;12384;48.112;18.418;2022-11-02T00:52:44;11.60;99.90
24260;DHT22;12384;48.112;18.418;2022-11-02T00:55:13;11.60;99.90
24260;DHT22;12384;48.112;18.418;2022-11-02T00:57:43;11.60;99.90
24260;DHT22;12384;48.112;18.418;2022-11-02T01:00:14;11.50;99.90
24260;DHT22;12384;48.112;18.418;2022-11-02T01:02:43;11.50;99.90
24260;DHT22;12384;48.112;18.418;2022-11-02T01:05:11;11.50;99.90
24260;DHT22;12384;48.112;18.418;2022-11-02T01:07:40;11.60;99.90
24260;DHT22;12384;48.112;18.418;2022-11-02T01:10:09;11.50;99.90
24260;DHT22;12384;48.112;18.418;2022-11-02T01:12:39;11.50;99.90
24260;DHT22;12384;48.112;18.418;2022-11-02T01:15:10;11.50;99.90
24260;DHT22;12384;48.112;18.418;2022-11-02T01:17:40;11.50;99.90
24260;DHT22;12384;48.112;18.418;2022-11-02T01:20:09;11.50;99.90
24260;DHT22;12384;48.112;18.418;2022-11-02T01:22:37;11.50;99.90
24260;DHT22;12384;48.112;18.418;2022-11-02T01:25:06;11.50;99.90
24260;DHT22;12384;48.112;18.418;2022-11-02T01:27:35;11.50;99.90
24260;DHT22;12384;48.112;18.418;2022-11-02T01:30:04;11.50;99.90
24260;DHT22;12384;48.112;18.418;2022-11-02T01:32:32;11.50;99.90
24260;DHT22;12384;48.112;18.418;2022-11-02T01:35:02;11.50;99.90
24260;DHT22;12384;48.112;18.418;2022-11-02T01:37:30;11.50;99.90
24260;DHT22;12384;48.112;18.418;2022-11-02T01:39:59;11.50;99.90
24260;DHT22;12384;48.112;18.418;2022-11-02T01:42:27;11.50;99.90
24260;DHT22;12384;48.112;18.418;2022-11-02T01:44:56;11.50;99.90
24260;DHT22;12384;48.112;18.418;2022-11-02T01:47:26;11.50;99.90
24260;DHT22;12384;48.112;18.418;2022-11-02T01:50:03;11.50;99.90
24260;DHT22;12384;48.112;18.418;2022-11-02T01:52:34;11.50;99.90
24260;DHT22;12384;48.112;18.418;2022-11-02T01:55:08;11.50;99.90
24260;DHT22;12384;48.112;18.418;2022-11-02T01:57:39;11.50;99.90
24260;DHT22;12384;48.112;18.418;2022-11-02T02:00:12;11.50;99.90
24260;DHT22;12384;48.112;18.418;2022-11-02T02:02:44;11.50;99.90
24260;DHT22;12384;48.112;18.418;2022-11-02T02:05:15;11.50;99.90
24260;DHT22;12384;48.112;18.418;2022-11-02T02:07:45;11.50;99.90
24260;DHT22;12384;48.112;18.418;2022-11-02T02:10:14;11.50;99.90
24260;DHT22;12384;48.112;18.418;2022-11-02T02:12:43;11.50;99.90
24260;DHT22;12384;48.112;18.418;2022-11-02T02:15:15;11.50;99.90
24260;DHT22;12384;48.112;18.418;2022-11-02T02:17:47;11.40;99.90
24260;DHT22;12384;48.112;18.418;2022-11-02T02:20:33;11.40;99.90
24260;DHT22;12384;48.112;18.418;2022-11-02T02:23:23;11.50;99.90
24260;DHT22;12384;48.112;18.418;2022-11-02T02:26:22;11.50;99.90
24260;DHT22;12384;48.112;18.418;2022-11-02T02:29:01;11.50;99.90
24260;DHT22;12384;48.112;18.418;2022-11-02T02:31:34;11.50;99.90
24260;DHT22;12384;48.112;18.418;2022-11-02T02:34:08;11.40;99.90
24260;DHT22;12384;48.112;18.418;2022-11-02T02:36:44;11.50;99.90
24260;DHT22;12384;48.112;18.418;2022-11-02T02:39:19;11.50;99.90
24260;DHT22;12384;48.112;18.418;2022-11-02T02:41:55;11.50;99.90
24260;DHT22;12384;48.112;18.418;2022-11-02T02:44:30;11.40;99.90
24260;DHT22;12384;48.112;18.418;2022-11-02T02:47:04;11.40;99.90
24260;DHT22;12384;48.112;18.418;2022-11-02T02:49:40;11.40;99.90
24260;DHT22;12384;48.112;18.418;2022-11-02T02:52:10;11.40;99.90
24260;DHT22;12384;48.112;18.418;2022-11-02T02:54:41;11.40;99.90
24260;DHT22;12384;48.112;18.418;2022-11-02T02:57:15;11.40;99.90
24260;DHT22;12384;48.112;18.418;2022-11-02T02:59:47;11.30;99.90
24260;DHT22;12384;48.112;18.418;2022-11-02T03:02:20;11.40;99.90
24260;DHT22;12384;48.112;18.418;2022-11-02T03:04:52;11.30;99.90
24260;DHT22;12384;48.112;18.418;2022-11-02T03:07:23;11.30;99.90
24260;DHT22;12384;48.112;18.418;2022-11-02T03:10:07;11.30;99.90
24260;DHT22;12384;48.112;18.418;2022-11-02T03:12:45;11.20;99.90
24260;DHT22;12384;48.112;18.418;2022-11-02T03:15:25;11.20;99.90
24260;DHT22;12384;48.112;18.418;2022-11-02T03:18:02;11.30;99.90
24260;DHT22;12384;48.112;18.418;2022-11-02T03:20:44;11.20;99.90
24260;DHT22;12384;48.112;18.418;2022-11-02T03:23:18;11.20;99.90
24260;DHT22;12384;48.112;18.418;2022-11-02T03:25:57;11.20;99.90
24260;DHT22;12384;48.112;18.418;2022-11-02T03:28:37;11.20;99.90
24260;DHT22;12384;48.112;18.418;2022-11-02T03:31:14;11.20;99.90
24260;DHT22;12384;48.112;18.418;2022-11-02T03:33:48;11.20;99.90
24260;DHT22;12384;48.112;18.418;2022-11-02T03:36:26;11.20;99.90
24260;DHT22;12384;48.112;18.418;2022-11-02T03:39:02;11.20;99.90
24260;DHT22;12384;48.112;18.418;2022-11-02T03:41:35;11.20;99.90
24260;DHT22;12384;48.112;18.418;2022-11-02T03:44:08;11.20;99.90
24260;DHT22;12384;48.112;18.418;2022-11-02T03:46:41;11.20;99.90
24260;DHT22;12384;48.112;18.418;2022-11-02T03:49:16;11.30;99.90
24260;DHT22;12384;48.112;18.418;2022-11-02T03:51:48;11.30;99.90
24260;DHT22;12384;48.112;18.418;2022-11-02T03:54:23;11.30;99.90
24260;DHT22;12384;48.112;18.418;2022-11-02T03:56:58;11.20;99.90
24260;DHT22;12384;48.112;18.418;2022-11-02T03:59:31;11.30;99.90
24260;DHT22;12384;48.112;18.418;2022-11-02T04:02:01;11.30;99.90
24260;DHT22;12384;48.112;18.418;2022-11-02T04:04:30;11.30;99.90
24260;DHT22;12384;48.112;18.418;2022-11-02T04:06:58;11.30;99.90
24260;DHT22;12384;48.112;18.418;2022-11-02T04:09:27;11.30;99.90
24260;DHT22;12384;48.112;18.418;2022-11-02T04:11:55;11.40;99.90
24260;DHT22;12384;48.112;18.418;2022-11-02T04:14:38;11.40;99.90
24260;DHT22;12384;48.112;18.418;2022-11-02T04:17:12;11.40;99.90
24260;DHT22;12384;48.112;18.418;2022-11-02T04:20:01;11.40;99.90
24260;DHT22;12384;48.112;18.418;2022-11-02T04:22:29;11.40;99.90
24260;DHT22;12384;48.112;18.418;2022-11-02T04:25:30;11.40;99.90
24260;DHT22;12384;48.112;18.418;2022-11-02T04:28:13;11.40;99.90
24260;DHT22;12384;48.112;18.418;2022-11-02T04:30:48;11.40;99.90
24260;DHT22;12384;48.112;18.418;2022-11-02T04:33:20;11.40;99.90
24260;DHT22;12384;48.112;18.418;2022-11-02T04:36:09;11.50;99.90
24260;DHT22;12384;48.112;18.418;2022-11-02T04:38:38;11.40;99.90
24260;DHT22;12384;48.112;18.418;2022-11-02T04:41:16;11.50;99.90
24260;DHT22;12384;48.112;18.418;2022-11-02T04:44:06;11.50;99.90
24260;DHT22;12384;48.112;18.418;2022-11-02T04:46:38;11.50;99.90
24260;DHT22;12384;48.112;18.418;2022-11-02T04:49:09;11.50;99.90
24260;DHT22;12384;48.112;18.418;2022-11-02T04:51:38;11.50;99.90
24260;DHT22;12384;48.112;18.418;2022-11-02T04:54:15;11.50;99.90
24260;DHT22;12384;48.112;18.418;2022-11-02T04:56:45;11.50;99.90
24260;DHT22;12384;48.112;18.418;2022-11-02T04:59:15;11.50;99.90
24260;DHT22;12384;48.112;18.418;2022-11-02T05:01:43;11.50;99.90
24260;DHT22;12384;48.112;18.418;2022-11-02T05:04:15;11.50;99.90
24260;DHT22;12384;48.112;18.418;2022-11-02T05:06:44;11.50;99.90
24260;DHT22;12384;48.112;18.418;2022-11-02T05:09:12;11.50;99.90
24260;DHT22;12384;48.112;18.418;2022-11-02T05:11:44;11.40;99.90
24260;DHT22;12384;48.112;18.418;2022-11-02T05:14:13;11.50;99.90
24260;DHT22;12384;48.112;18.418;2022-11-02T05:16:41;11.50;99.90
24260;DHT22;12384;48.112;18.418;2022-11-02T05:19:12;11.50;99.90
24260;DHT22;12384;48.112;18.418;2022-11-02T05:21:43;11.50;99.90
24260;DHT22;12384;48.112;18.418;2022-11-02T05:24:13;11.50;99.90
24260;DHT22;12384;48.112;18.418;2022-11-02T05:26:41;11.50;99.90
24260;DHT22;12384;48.112;18.418;2022-11-02T05:29:10;11.50;99.90
24260;DHT22;12384;48.112;18.418;2022-11-02T05:31:38;11.50;99.90
24260;DHT22;12384;48.112;18.418;2022-11-02T05:34:06;11.50;99.90
24260;DHT22;12384;48.112;18.418;2022-11-02T05:36:35;11.50;99.90
24260;DHT22;12384;48.112;18.418;2022-11-02T05:39:05;11.50;99.90
24260;DHT22;12384;48.112;18.418;2022-11-02T05:41:33;11.50;99.90
24260;DHT22;12384;48.112;18.418;2022-11-02T05:44:02;11.50;99.90
24260;DHT22;12384;48.112;18.418;2022-11-02T05:46:31;11.50;99.90
24260;DHT22;12384;48.112;18.418;2022-11-02T05:48:59;11.50;99.90
24260;DHT22;12384;48.112;18.418;2022-11-02T05:51:27;11.50;99.90
24260;DHT22;12384;48.112;18.418;2022-11-02T05:53:56;11.60;99.90
24260;DHT22;12384;48.112;18.418;2022-11-02T05:56:26;11.60;99.90
24260;DHT22;12384;48.112;18.418;2022-11-02T05:58:54;11.60;99.90
24260;DHT22;12384;48.112;18.418;2022-11-02T06:01:23;11.60;99.90
24260;DHT22;12384;48.112;18.418;2022-11-02T06:03:51;11.60;99.90
24260;DHT22;12384;48.112;18.418;2022-11-02T06:06:20;11.60;99.90
24260;DHT22;12384;48.112;18.418;2022-11-02T06:08:49;11.60;99.90
24260;DHT22;12384;48.112;18.418;2022-11-02T06:11:17;11.50;99.90
24260;DHT22;12384;48.112;18.418;2022-11-02T06:13:49;11.60;99.90
24260;DHT22;12384;48.112;18.418;2022-11-02T06:16:17;11.50;99.90
24260;DHT22;12384;48.112;18.418;2022-11-02T06:18:49;11.60;99.90
24260;DHT22;12384;48.112;18.418;2022-11-02T06:21:18;11.60;99.90
24260;DHT22;12384;48.112;18.418;2022-11-02T06:23:46;11.60;99.90
24260;DHT22;12384;48.112;18.418;2022-11-02T06:26:15;11.60;99.90
24260;DHT22;12384;48.112;18.418;2022-11-02T06:28:43;11.60;99.90
24260;DHT22;12384;48.112;18.418;2022-11-02T06:31:14;11.70;99.90
24260;DHT22;12384;48.112;18.418;2022-11-02T06:33:43;11.70;99.90
24260;DHT22;12384;48.112;18.418;2022-11-02T06:36:12;11.70;99.90
24260;DHT22;12384;48.112;18.418;2022-11-02T06:38:40;11.80;99.90
24260;DHT22;12384;48.112;18.418;2022-11-02T06:41:09;11.80;99.90
24260;DHT22;12384;48.112;18.418;2022-11-02T06:43:38;11.90;99.90
24260;DHT22;12384;48.112;18.418;2022-11-02T06:46:07;11.90;99.90
24260;DHT22;12384;48.112;18.418;2022-11-02T06:48:36;12.00;99.90
24260;DHT22;12384;48.112;18.418;2022-11-02T06:51:05;12.10;99.90
24260;DHT22;12384;48.112;18.418;2022-11-02T06:53:33;12.10;99.90
24260;DHT22;12384;48.112;18.418;2022-11-02T06:56:01;12.10;99.90
24260;DHT22;12384;48.112;18.418;2022-11-02T06:58:30;12.20;99.90
24260;DHT22;12384;48.112;18.418;2022-11-02T07:01:00;12.20;99.90
24260;DHT22;12384;48.112;18.418;2022-11-02T07:03:29;12.30;99.90
24260;DHT22;12384;48.112;18.418;2022-11-02T07:05:59;12.30;99.90
24260;DHT22;12384;48.112;18.418;2022-11-02T07:08:28;12.30;99.90
24260;DHT22;12384;48.112;18.418;2022-11-02T07:10:57;12.40;99.90
24260;DHT22;12384;48.112;18.418;2022-11-02T07:13:26;12.40;99.90
24260;DHT22;12384;48.112;18.418;2022-11-02T07:15:54;12.40;99.90
24260;DHT22;12384;48.112;18.418;2022-11-02T07:18:23;12.40;99.90
24260;DHT22;12384;48.112;18.418;2022-11-02T07:20:51;12.40;99.90
24260;DHT22;12384;48.112;18.418;2022-11-02T07:23:20;12.50;99.90
24260;DHT22;12384;48.112;18.418;2022-11-02T07:25:50;12.70;99.90
24260;DHT22;12384;48.112;18.418;2022-11-02T07:28:19;13.00;99.90
24260;DHT22;12384;48.112;18.418;2022-11-02T07:30:48;13.30;99.90
24260;DHT22;12384;48.112;18.418;2022-11-02T07:33:16;13.60;99.90
24260;DHT22;12384;48.112;18.418;2022-11-02T07:35:44;13.90;99.90
24260;DHT22;12384;48.112;18.418;2022-11-02T07:38:13;14.30;99.90
24260;DHT22;12384;48.112;18.418;2022-11-02T07:40:42;14.60;99.90
24260;DHT22;12384;48.112;18.418;2022-11-02T07:43:11;15.10;99.90
24260;DHT22;12384;48.112;18.418;2022-11-02T07:45:52;15.40;99.90
24260;DHT22;12384;48.112;18.418;2022-11-02T07:48:20;15.60;99.90
24260;DHT22;12384;48.112;18.418;2022-11-02T07:50:48;15.80;99.90
24260;DHT22;12384;48.112;18.418;2022-11-02T07:53:17;15.90;99.90
24260;DHT22;12384;48.112;18.418;2022-11-02T07:55:46;16.10;99.90
24260;DHT22;12384;48.112;18.418;2022-11-02T07:58:14;16.20;99.90
24260;DHT22;12384;48.112;18.418;2022-11-02T08:00:43;16.30;99.90
24260;DHT22;12384;48.112;18.418;2022-11-02T08:03:11;16.50;99.90
24260;DHT22;12384;48.112;18.418;2022-11-02T08:05:41;16.60;99.90
24260;DHT22;12384;48.112;18.418;2022-11-02T08:08:11;16.80;99.90
24260;DHT22;12384;48.112;18.418;2022-11-02T08:10:41;17.00;99.90
24260;DHT22;12384;48.112;18.418;2022-11-02T08:13:12;17.40;99.90
24260;DHT22;12384;48.112;18.418;2022-11-02T08:15:41;17.90;99.90
24260;DHT22;12384;48.112;18.418;2022-11-02T08:18:13;18.40;99.90
24260;DHT22;12384;48.112;18.418;2022-11-02T08:20:42;19.10;99.90
24260;DHT22;12384;48.112;18.418;2022-11-02T08:23:12;19.80;99.90
24260;DHT22;12384;48.112;18.418;2022-11-02T08:25:41;20.50;99.90
24260;DHT22;12384;48.112;18.418;2022-11-02T08:28:14;21.30;99.90
24260;DHT22;12384;48.112;18.418;2022-11-02T08:30:43;22.10;99.90
24260;DHT22;12384;48.112;18.418;2022-11-02T08:33:12;23.00;99.90
24260;DHT22;12384;48.112;18.418;2022-11-02T08:35:43;23.90;99.90
24260;DHT22;12384;48.112;18.418;2022-11-02T08:38:12;24.70;99.90
24260;DHT22;12384;48.112;18.418;2022-11-02T08:40:41;25.60;99.90
24260;DHT22;12384;48.112;18.418;2022-11-02T08:43:13;26.40;99.90
24260;DHT22;12384;48.112;18.418;2022-11-02T08:45:42;27.10;99.90
24260;DHT22;12384;48.112;18.418;2022-11-02T08:48:31;27.80;95.80
24260;DHT22;12384;48.112;18.418;2022-11-02T08:50:59;28.40;87.20
24260;DHT22;12384;48.112;18.418;2022-11-02T08:53:28;29.00;78.30
24260;DHT22;12384;48.112;18.418;2022-11-02T08:55:57;29.50;71.90
24260;DHT22;12384;48.112;18.418;2022-11-02T08:58:26;29.90;67.80
24260;DHT22;12384;48.112;18.418;2022-11-02T09:00:55;30.20;64.40
24260;DHT22;12384;48.112;18.418;2022-11-02T09:03:23;30.40;61.70
24260;DHT22;12384;48.112;18.418;2022-11-02T09:05:57;30.60;59.30
24260;DHT22;12384;48.112;18.418;2022-11-02T09:08:26;30.70;57.60
24260;DHT22;12384;48.112;18.418;2022-11-02T09:10:58;30.70;56.90
24260;DHT22;12384;48.112;18.418;2022-11-02T09:13:28;30.80;55.20
24260;DHT22;12384;48.112;18.418;2022-11-02T09:15:58;30.90;54.20
24260;DHT22;12384;48.112;18.418;2022-11-02T09:18:26;30.90;53.10
24260;DHT22;12384;48.112;18.418;2022-11-02T09:20:55;30.90;52.00
24260;DHT22;12384;48.112;18.418;2022-11-02T09:23:24;31.00;51.10
24260;DHT22;12384;48.112;18.418;2022-11-02T09:25:52;30.90;50.10
24260;DHT22;12384;48.112;18.418;2022-11-02T09:28:20;30.90;49.40
24260;DHT22;12384;48.112;18.418;2022-11-02T09:30:50;30.90;49.10
24260;DHT22;12384;48.112;18.418;2022-11-02T09:33:18;30.90;48.50
24260;DHT22;12384;48.112;18.418;2022-11-02T09:35:48;30.90;47.60
24260;DHT22;12384;48.112;18.418;2022-11-02T09:38:16;30.90;47.10
24260;DHT22;12384;48.112;18.418;2022-11-02T09:40:53;30.90;46.70
24260;DHT22;12384;48.112;18.418;2022-11-02T09:43:33;31.00;46.00
24260;DHT22;12384;48.112;18.418;2022-11-02T09:46:07;31.00;45.40
24260;DHT22;12384;48.112;18.418;2022-11-02T09:48:40;31.00;45.30
24260;DHT22;12384;48.112;18.418;2022-11-02T09:51:13;31.00;45.00
24260;DHT22;12384;48.112;18.418;2022-11-02T09:53:52;31.10;44.80
24260;DHT22;12384;48.112;18.418;2022-11-02T09:56:22;31.30;44.50
24260;DHT22;12384;48.112;18.418;2022-11-02T09:58:56;31.30;44.40
24260;DHT22;12384;48.112;18.418;2022-11-02T10:01:49;31.30;43.80
24260;DHT22;12384;48.112;18.418;2022-11-02T10:07:24;31.30;42.90
24260;DHT22;12384;48.112;18.418;2022-11-02T10:10:01;31.30;42.70
24260;DHT22;12384;48.112;18.418;2022-11-02T10:12:36;31.30;42.60
24260;DHT22;12384;48.112;18.418;2022-11-02T10:15:11;31.30;42.30
24260;DHT22;12384;48.112;18.418;2022-11-02T10:17:45;31.20;41.80
24260;DHT22;12384;48.112;18.418;2022-11-02T10:20:21;31.20;41.40
24260;DHT22;12384;48.112;18.418;2022-11-02T10:22:57;31.10;41.40
24260;DHT22;12384;48.112;18.418;2022-11-02T10:25:26;30.80;41.10
24260;DHT22;12384;48.112;18.418;2022-11-02T10:28:00;30.60;41.50
24260;DHT22;12384;48.112;18.418;2022-11-02T10:30:31;30.50;41.80
24260;DHT22;12384;48.112;18.418;2022-11-02T10:33:01;30.50;41.90
24260;DHT22;12384;48.112;18.418;2022-11-02T10:35:41;30.50;41.90
24260;DHT22;12384;48.112;18.418;2022-11-02T10:38:39;30.70;41.90
24260;DHT22;12384;48.112;18.418;2022-11-02T10:41:30;30.90;41.50
24260;DHT22;12384;48.112;18.418;2022-11-02T10:44:16;31.00;41.00
24260;DHT22;12384;48.112;18.418;2022-11-02T10:46:56;31.10;39.60
24260;DHT22;12384;48.112;18.418;2022-11-02T10:49:53;31.00;39.80
24260;DHT22;12384;48.112;18.418;2022-11-02T10:52:27;31.10;39.50
24260;DHT22;12384;48.112;18.418;2022-11-02T10:54:56;31.00;39.90
24260;DHT22;12384;48.112;18.418;2022-11-02T10:57:25;31.10;40.20
24260;DHT22;12384;48.112;18.418;2022-11-02T11:00:22;31.20;40.20
24260;DHT22;12384;48.112;18.418;2022-11-02T11:03:11;31.30;38.70
24260;DHT22;12384;48.112;18.418;2022-11-02T11:05:54;31.30;38.90
24260;DHT22;12384;48.112;18.418;2022-11-02T11:08:28;31.30;39.10
24260;DHT22;12384;48.112;18.418;2022-11-02T11:11:12;31.40;39.30
24260;DHT22;12384;48.112;18.418;2022-11-02T11:13:43;31.40;38.60
24260;DHT22;12384;48.112;18.418;2022-11-02T11:16:38;31.40;38.40
24260;DHT22;12384;48.112;18.418;2022-11-02T11:19:22;31.30;38.10
24260;DHT22;12384;48.112;18.418;2022-11-02T11:22:26;31.30;37.60
24260;DHT22;12384;48.112;18.418;2022-11-02T11:25:19;31.20;37.40
24260;DHT22;12384;48.112;18.418;2022-11-02T11:27:55;31.20;37.40
24260;DHT22;12384;48.112;18.418;2022-11-02T11:30:26;31.20;38.30
24260;DHT22;12384;48.112;18.418;2022-11-02T11:33:16;31.20;37.90
24260;DHT22;12384;48.112;18.418;2022-11-02T11:35:48;31.10;37.20
24260;DHT22;12384;48.112;18.418;2022-11-02T11:38:20;31.00;37.90
24260;DHT22;12384;48.112;18.418;2022-11-02T11:40:52;30.90;38.10
24260;DHT22;12384;48.112;18.418;2022-11-02T11:43:24;30.70;37.50
24260;DHT22;12384;48.112;18.418;2022-11-02T11:45:54;30.70;37.80
24260;DHT22;12384;48.112;18.418;2022-11-02T11:48:35;30.50;37.70
24260;DHT22;12384;48.112;18.418;2022-11-02T11:51:26;30.40;37.90
24260;DHT22;12384;48.112;18.418;2022-11-02T11:54:15;30.30;37.70
24260;DHT22;12384;48.112;18.418;2022-11-02T11:56:45;30.20;37.80
24260;DHT22;12384;48.112;18.418;2022-11-02T11:59:25;30.10;37.80
24260;DHT22;12384;48.112;18.418;2022-11-02T12:01:56;29.90;37.90
24260;DHT22;12384;48.112;18.418;2022-11-02T12:04:30;29.80;38.30
24260;DHT22;12384;48.112;18.418;2022-11-02T12:10:10;29.70;38.40
24260;DHT22;12384;48.112;18.418;2022-11-02T12:12:53;29.70;38.90
24260;DHT22;12384;48.112;18.418;2022-11-02T12:15:35;29.80;38.90
24260;DHT22;12384;48.112;18.418;2022-11-02T12:18:29;29.90;39.00
24260;DHT22;12384;48.112;18.418;2022-11-02T12:21:09;30.00;38.40
24260;DHT22;12384;48.112;18.418;2022-11-02T12:24:01;30.20;38.50
24260;DHT22;12384;48.112;18.418;2022-11-02T12:26:45;30.40;37.30
24260;DHT22;12384;48.112;18.418;2022-11-02T12:29:34;30.50;37.30
24260;DHT22;12384;48.112;18.418;2022-11-02T12:32:14;30.60;36.40
24260;DHT22;12384;48.112;18.418;2022-11-02T12:35:04;30.80;36.70
24260;DHT22;12384;48.112;18.418;2022-11-02T12:38:07;30.90;36.10
24260;DHT22;12384;48.112;18.418;2022-11-02T12:40:44;31.00;36.40
24260;DHT22;12384;48.112;18.418;2022-11-02T12:43:28;31.10;36.20
24260;DHT22;12384;48.112;18.418;2022-11-02T12:46:02;31.30;35.70
24260;DHT22;12384;48.112;18.418;2022-11-02T12:48:37;31.30;35.80
24260;DHT22;12384;48.112;18.418;2022-11-02T12:51:13;31.30;35.50
24260;DHT22;12384;48.112;18.418;2022-11-02T12:53:45;31.40;35.80
24260;DHT22;12384;48.112;18.418;2022-11-02T12:56:20;31.50;35.60
24260;DHT22;12384;48.112;18.418;2022-11-02T12:58:51;31.50;34.90
24260;DHT22;12384;48.112;18.418;2022-11-02T13:01:23;31.40;34.60
24260;DHT22;12384;48.112;18.418;2022-11-02T13:03:57;31.40;34.10
24260;DHT22;12384;48.112;18.418;2022-11-02T13:06:32;31.30;34.10
24260;DHT22;12384;48.112;18.418;2022-11-02T13:09:06;31.10;33.60
24260;DHT22;12384;48.112;18.418;2022-11-02T13:11:38;30.90;33.50
24260;DHT22;12384;48.112;18.418;2022-11-02T13:14:12;30.60;33.60
24260;DHT22;12384;48.112;18.418;2022-11-02T13:16:46;30.30;33.80
24260;DHT22;12384;48.112;18.418;2022-11-02T13:19:19;30.10;34.20
24260;DHT22;12384;48.112;18.418;2022-11-02T13:21:52;29.80;34.50
24260;DHT22;12384;48.112;18.418;2022-11-02T13:24:23;29.60;35.00
24260;DHT22;12384;48.112;18.418;2022-11-02T13:26:59;29.50;35.40
24260;DHT22;12384;48.112;18.418;2022-11-02T13:29:45;29.40;35.40
24260;DHT22;12384;48.112;18.418;2022-11-02T13:32:21;29.30;36.20
24260;DHT22;12384;48.112;18.418;2022-11-02T13:35:02;29.20;35.60
24260;DHT22;12384;48.112;18.418;2022-11-02T13:37:36;29.20;35.90
24260;DHT22;12384;48.112;18.418;2022-11-02T13:40:14;29.00;36.10
24260;DHT22;12384;48.112;18.418;2022-11-02T13:43:15;28.90;36.90
24260;DHT22;12384;48.112;18.418;2022-11-02T13:48:54;28.40;36.30
24260;DHT22;12384;48.112;18.418;2022-11-02T13:51:28;28.10;36.50
24260;DHT22;12384;48.112;18.418;2022-11-02T13:54:01;27.90;37.00
24260;DHT22;12384;48.112;18.418;2022-11-02T13:56:30;27.60;37.30
24260;DHT22;12384;48.112;18.418;2022-11-02T13:59:04;27.30;37.70
24260;DHT22;12384;48.112;18.418;2022-11-02T14:01:38;27.10;37.90
24260;DHT22;12384;48.112;18.418;2022-11-02T14:04:11;26.80;37.90
24260;DHT22;12384;48.112;18.418;2022-11-02T14:06:49;26.60;38.50
24260;DHT22;12384;48.112;18.418;2022-11-02T14:09:29;26.40;38.70
24260;DHT22;12384;48.112;18.418;2022-11-02T14:18:01;25.80;39.20
24260;DHT22;12384;48.112;18.418;2022-11-02T14:20:34;25.50;39.60
24260;DHT22;12384;48.112;18.418;2022-11-02T14:23:34;25.20;39.80
24260;DHT22;12384;48.112;18.418;2022-11-02T14:26:03;24.90;40.10
24260;DHT22;12384;48.112;18.418;2022-11-02T14:28:33;24.50;40.40
24260;DHT22;12384;48.112;18.418;2022-11-02T14:31:31;24.10;40.50
24260;DHT22;12384;48.112;18.418;2022-11-02T14:34:16;23.70;41.00
24260;DHT22;12384;48.112;18.418;2022-11-02T14:36:59;23.20;41.10
24260;DHT22;12384;48.112;18.418;2022-11-02T14:39:38;22.80;41.40
24260;DHT22;12384;48.112;18.418;2022-11-02T14:42:21;22.40;41.90
24260;DHT22;12384;48.112;18.418;2022-11-02T14:45:26;22.00;42.20
24260;DHT22;12384;48.112;18.418;2022-11-02T14:47:58;21.60;42.70
24260;DHT22;12384;48.112;18.418;2022-11-02T14:50:29;21.20;43.00
24260;DHT22;12384;48.112;18.418;2022-11-02T14:53:02;20.90;43.50
24260;DHT22;12384;48.112;18.418;2022-11-02T14:55:33;20.50;43.80
24260;DHT22;12384;48.112;18.418;2022-11-02T14:58:06;20.20;44.20
24260;DHT22;12384;48.112;18.418;2022-11-02T15:00:51;19.90;44.50
24260;DHT22;12384;48.112;18.418;2022-11-02T15:03:30;19.60;44.90
24260;DHT22;12384;48.112;18.418;2022-11-02T15:06:03;19.30;45.20
24260;DHT22;12384;48.112;18.418;2022-11-02T15:08:34;19.00;45.50
24260;DHT22;12384;48.112;18.418;2022-11-02T15:14:49;18.50;46.10
24260;DHT22;12384;48.112;18.418;2022-11-02T15:20:35;17.90;46.60
24260;DHT22;12384;48.112;18.418;2022-11-02T15:23:20;17.60;47.00
24260;DHT22;12384;48.112;18.418;2022-11-02T15:25:58;17.30;47.10
24260;DHT22;12384;48.112;18.418;2022-11-02T15:28:28;17.10;47.60
24260;DHT22;12384;48.112;18.418;2022-11-02T15:31:02;16.80;47.80
24260;DHT22;12384;48.112;18.418;2022-11-02T15:33:35;16.60;48.00
24260;DHT22;12384;48.112;18.418;2022-11-02T15:36:06;16.40;48.30
24260;DHT22;12384;48.112;18.418;2022-11-02T15:38:36;16.20;48.70
24260;DHT22;12384;48.112;18.418;2022-11-02T15:41:23;16.00;49.00
24260;DHT22;12384;48.112;18.418;2022-11-02T15:44:09;15.80;49.20
24260;DHT22;12384;48.112;18.418;2022-11-02T15:46:50;15.60;49.50
24260;DHT22;12384;48.112;18.418;2022-11-02T15:49:33;15.50;49.80
24260;DHT22;12384;48.112;18.418;2022-11-02T15:52:14;15.30;49.90
24260;DHT22;12384;48.112;18.418;2022-11-02T15:54:52;15.20;50.20
24260;DHT22;12384;48.112;18.418;2022-11-02T15:57:32;15.00;50.20
24260;DHT22;12384;48.112;18.418;2022-11-02T16:00:11;14.80;50.40
24260;DHT22;12384;48.112;18.418;2022-11-02T16:02:42;14.70;50.70
24260;DHT22;12384;48.112;18.418;2022-11-02T16:05:17;14.50;50.90
24260;DHT22;12384;48.112;18.418;2022-11-02T16:07:47;14.40;51.00
24260;DHT22;12384;48.112;18.418;2022-11-02T16:10:37;14.30;51.30
24260;DHT22;12384;48.112;18.418;2022-11-02T16:13:14;14.10;51.50
24260;DHT22;12384;48.112;18.418;2022-11-02T16:15:44;14.00;51.70
24260;DHT22;12384;48.112;18.418;2022-11-02T16:18:24;13.90;52.10